createdAt,value
2018-02-23T00:00:21.910Z,39.88
2018-02-23T00:02:49.672Z,29.80
2018-02-23T00:05:17.430Z,40.38
2018-02-23T00:07:49.141Z,44.45
2018-02-23T00:10:17.698Z,41.70
2018-02-23T00:12:45.470Z,41.45
2018-02-23T00:15:13.313Z,39.85
2018-02-23T00:17:41.074Z,42.10
2018-02-23T00:20:08.862Z,39.53
2018-02-23T00:22:41.682Z,44.10
2018-02-23T00:25:09.483Z,30.98
2018-02-23T00:27:37.246Z,37.75
2018-02-23T00:30:05.073Z,49.45
2018-02-23T00:32:32.843Z,28.05
2018-02-23T00:35:00.589Z,44.30
2018-02-23T00:37:28.546Z,47.80
2018-02-23T00:39:57.070Z,54.10
2018-02-23T00:42:24.824Z,50.63
2018-02-23T00:44:52.639Z,51.08
2018-02-23T00:47:21.186Z,51.90
2018-02-23T00:49:48.958Z,35.60
2018-02-23T00:52:16.774Z,51.97
2018-02-23T00:54:44.537Z,44.38
2018-02-23T00:57:12.304Z,56.08
2018-02-23T00:59:40.123Z,49.28
2018-02-23T01:02:07.881Z,42.03
2018-02-23T01:04:35.642Z,30.88
2018-02-23T01:07:03.462Z,51.17
2018-02-23T01:09:31.230Z,41.67
2018-02-23T01:11:59.012Z,49.20
2018-02-23T01:14:26.817Z,47.03
2018-02-23T01:16:54.573Z,34.58
2018-02-23T01:19:22.330Z,39.10
2018-02-23T01:21:50.911Z,46.88
2018-02-23T01:24:19.448Z,32.65
2018-02-23T01:26:47.234Z,44.00
2018-02-23T01:29:15.060Z,43.00
2018-02-23T01:31:42.824Z,52.25
2018-02-23T01:34:10.590Z,42.67
2018-02-23T01:36:38.422Z,41.00
2018-02-23T01:39:06.174Z,44.13
2018-02-23T01:41:34.701Z,46.97
2018-02-23T01:44:02.511Z,55.95
2018-02-23T01:46:31.034Z,44.38
2018-02-23T01:48:58.797Z,38.08
2018-02-23T01:51:26.611Z,44.38
2018-02-23T01:53:55.158Z,42.67
2018-02-23T01:56:22.929Z,34.55
2018-02-23T01:58:50.758Z,44.65
2018-02-23T02:01:18.518Z,52.50
2018-02-23T02:03:46.299Z,45.40
2018-02-23T02:06:14.129Z,42.58
2018-02-23T02:08:41.882Z,43.70
2018-02-23T02:11:09.641Z,49.53
2018-02-23T02:13:37.453Z,38.20
2018-02-23T02:16:05.205Z,49.45
2018-02-23T02:18:32.970Z,44.45
2018-02-23T02:21:00.786Z,40.40
2018-02-23T02:23:28.613Z,45.80
2018-02-23T02:25:56.383Z,48.28
2018-02-23T02:28:24.220Z,48.58
2018-02-23T02:30:51.980Z,44.75
2018-02-23T02:33:19.763Z,47.42
2018-02-23T02:35:47.578Z,50.12
2018-02-23T02:38:15.333Z,48.78
2018-02-23T02:40:43.096Z,55.88
2018-02-23T02:43:10.914Z,35.13
2018-02-23T02:45:38.722Z,52.85
2018-02-23T02:48:06.494Z,47.00
2018-02-23T02:50:34.305Z,37.70
2018-02-23T02:53:02.069Z,52.33
2018-02-23T02:55:29.839Z,35.83
2018-02-23T02:57:58.432Z,59.53
2018-02-23T03:00:26.958Z,47.17
2018-02-23T03:02:54.741Z,50.67
2018-02-23T03:05:22.593Z,49.17
2018-02-23T03:07:50.366Z,50.80
2018-02-23T03:10:18.131Z,51.85
2018-02-23T03:12:45.989Z,50.63
2018-02-23T03:15:13.759Z,46.35
2018-02-23T03:17:41.523Z,58.42
2018-02-23T03:20:09.343Z,46.78
2018-02-23T03:22:37.094Z,39.83
2018-02-23T03:25:04.849Z,59.03
2018-02-23T03:27:32.666Z,46.55
2018-02-23T03:30:00.426Z,52.90
2018-02-23T03:32:28.198Z,55.17
2018-02-23T03:34:56.266Z,46.97
2018-02-23T03:37:24.038Z,53.92
2018-02-23T03:39:51.800Z,66.45
2018-02-23T03:42:20.389Z,38.70
2018-02-23T03:44:48.918Z,50.67
2018-02-23T03:47:16.706Z,56.22
2018-02-23T03:49:44.524Z,62.17
2018-02-23T03:52:12.333Z,50.12
2018-02-23T03:54:40.145Z,67.57
2018-02-23T03:57:07.955Z,56.55
2018-02-23T03:59:35.728Z,60.55
2018-02-23T04:02:03.510Z,54.35
2018-02-23T04:04:32.084Z,64.07
2018-02-23T04:07:00.623Z,74.25
2018-02-23T04:09:28.378Z,47.15
2018-02-23T04:11:56.186Z,50.92
2018-02-23T04:14:24.723Z,60.30
2018-02-23T04:16:52.516Z,62.33
2018-02-23T04:19:20.380Z,52.62
2018-02-23T04:21:48.143Z,51.25
2018-02-23T04:24:16.690Z,52.17
2018-02-23T04:26:44.498Z,64.22
2018-02-23T04:29:13.034Z,54.08
2018-02-23T04:31:40.799Z,72.05
2018-02-23T04:34:08.625Z,66.93
2018-02-23T04:36:36.391Z,57.83
2018-02-23T04:39:04.279Z,56.85
2018-02-23T04:41:32.098Z,78.75
2018-02-23T04:46:42.779Z,71.45
2018-02-23T04:49:10.610Z,68.75
2018-02-23T04:51:38.392Z,69.97
2018-02-23T04:54:06.198Z,66.57
2018-02-23T04:56:33.986Z,72.72
2018-02-23T04:59:01.742Z,70.97
2018-02-23T05:01:29.562Z,70.95
2018-02-23T05:03:58.096Z,60.12
2018-02-23T05:06:25.873Z,86.43
2018-02-23T05:08:53.692Z,61.08
2018-02-23T05:11:22.518Z,64.10
2018-02-23T05:13:50.276Z,73.15
2018-02-23T05:16:18.091Z,61.55
2018-02-23T05:18:45.865Z,68.20
2018-02-23T05:21:13.649Z,68.95
2018-02-23T05:23:41.477Z,67.03
2018-02-23T05:26:09.254Z,64.35
2018-02-23T05:28:37.128Z,63.20
2018-02-23T05:31:04.991Z,61.33
2018-02-23T05:33:33.965Z,72.90
2018-02-23T05:36:01.727Z,85.30
2018-02-23T05:38:29.568Z,67.80
2018-02-23T05:40:58.090Z,61.80
2018-02-23T05:43:26.583Z,65.50
2018-02-23T05:45:54.406Z,62.25
2018-02-23T05:48:22.173Z,54.67
2018-02-23T05:50:49.973Z,62.17
2018-02-23T05:53:18.008Z,64.00
2018-02-23T05:55:45.765Z,77.53
2018-02-23T05:58:13.515Z,74.78
2018-02-23T06:00:41.335Z,64.80
2018-02-23T06:03:09.098Z,53.03
2018-02-23T06:05:36.866Z,63.85
2018-02-23T06:08:04.678Z,58.53
2018-02-23T06:10:32.465Z,69.57
2018-02-23T06:13:00.230Z,57.83
2018-02-23T06:15:33.783Z,69.30
2018-02-23T06:18:07.173Z,61.97
2018-02-23T06:20:35.764Z,54.97
2018-02-23T06:23:03.522Z,62.60
2018-02-23T06:25:31.287Z,49.42
2018-02-23T06:27:59.106Z,60.17
2018-02-23T06:30:26.863Z,57.75
2018-02-23T06:32:54.626Z,58.30
2018-02-23T06:35:22.436Z,44.15
2018-02-23T06:37:50.194Z,48.55
2018-02-23T06:40:17.996Z,56.60
2018-02-23T06:42:45.854Z,47.28
2018-02-23T06:45:13.621Z,59.17
2018-02-23T06:47:41.383Z,51.90
2018-02-23T06:50:09.217Z,42.45
2018-02-23T06:52:36.987Z,66.30
2018-02-23T06:55:04.771Z,50.75
2018-02-23T06:57:32.696Z,47.70
2018-02-23T07:00:00.466Z,49.00
2018-02-23T07:02:28.478Z,54.92
2018-02-23T07:04:56.549Z,57.03
2018-02-23T07:07:24.346Z,60.12
2018-02-23T07:09:52.931Z,46.17
2018-02-23T07:12:21.510Z,65.72
2018-02-23T07:14:50.036Z,54.28
2018-02-23T07:17:17.811Z,49.47
2018-02-23T07:19:45.631Z,57.22
2018-02-23T07:22:13.395Z,55.03
2018-02-23T07:24:41.274Z,67.80
2018-02-23T07:27:09.097Z,47.20
2018-02-23T07:29:37.628Z,53.28
2018-02-23T07:32:05.385Z,62.35
2018-02-23T07:34:33.212Z,44.67
2018-02-23T07:37:01.754Z,56.88
2018-02-23T07:39:29.545Z,59.10
2018-02-23T07:41:58.698Z,42.97
2018-02-23T07:44:27.235Z,44.20
2018-02-23T07:46:55.052Z,54.40
2018-02-23T07:49:22.886Z,59.55
2018-02-23T07:51:50.683Z,41.75
2018-02-23T07:54:18.443Z,61.58
2018-02-23T07:56:46.256Z,51.28
2018-02-23T07:59:14.025Z,54.67
2018-02-23T08:01:41.790Z,54.40
2018-02-23T08:04:09.602Z,55.12
2018-02-23T08:06:37.363Z,52.80
2018-02-23T08:09:05.148Z,50.60
2018-02-23T08:11:33.005Z,50.85
2018-02-23T08:14:01.551Z,45.38
2018-02-23T08:16:29.330Z,50.55
2018-02-23T08:18:57.957Z,54.75
2018-02-23T08:21:25.732Z,51.05
2018-02-23T08:23:53.512Z,52.55
2018-02-23T08:26:21.322Z,47.35
2018-02-23T08:28:49.847Z,55.53
2018-02-23T08:31:17.594Z,56.60
2018-02-23T08:33:45.394Z,55.95
2018-02-23T08:36:13.148Z,45.10
2018-02-23T08:38:40.922Z,48.70
2018-02-23T08:41:10.721Z,50.40
2018-02-23T08:43:39.241Z,58.10
2018-02-23T08:46:07.820Z,49.75
2018-02-23T08:48:36.402Z,51.92
2018-02-23T08:51:04.954Z,47.08
2018-02-23T08:53:32.713Z,46.65
2018-02-23T08:56:00.542Z,54.08
2018-02-23T08:58:28.295Z,53.65
2018-02-23T09:00:56.063Z,48.22
2018-02-23T09:03:23.879Z,49.92
2018-02-23T09:05:52.403Z,45.95
2018-02-23T09:08:20.163Z,40.50
2018-02-23T09:10:47.972Z,48.13
2018-02-23T09:13:15.733Z,41.00
2018-02-23T09:15:43.498Z,44.13
2018-02-23T09:18:11.318Z,48.92
2018-02-23T09:20:39.092Z,38.35
2018-02-23T09:23:06.850Z,43.28
2018-02-23T09:25:34.671Z,40.00
2018-02-23T09:28:03.193Z,40.03
2018-02-23T09:30:30.941Z,43.63
2018-02-23T09:32:58.778Z,45.15
2018-02-23T09:35:26.537Z,39.90
2018-02-23T09:37:55.074Z,47.80
2018-02-23T09:40:22.891Z,39.67
2018-02-23T09:42:50.645Z,40.97
2018-02-23T09:45:18.401Z,40.38
2018-02-23T09:47:46.223Z,43.65
2018-02-23T09:50:14.048Z,49.33
2018-02-23T09:52:42.548Z,41.88
2018-02-23T09:55:10.359Z,47.65
2018-02-23T09:57:38.126Z,48.80
2018-02-23T10:00:06.655Z,45.55
2018-02-23T10:02:34.466Z,39.75
2018-02-23T10:05:02.991Z,43.85
2018-02-23T10:07:30.767Z,42.62
2018-02-23T10:09:58.586Z,51.10
2018-02-23T10:12:26.339Z,49.05
2018-02-23T10:14:54.858Z,35.33
2018-02-23T10:17:22.761Z,45.38
2018-02-23T10:19:50.548Z,46.88
2018-02-23T10:22:18.315Z,48.47
2018-02-23T10:24:46.888Z,49.17
2018-02-23T10:27:15.421Z,45.47
2018-02-23T10:29:43.182Z,48.90
2018-02-23T10:32:11.071Z,41.63
2018-02-23T10:34:38.840Z,52.53
2018-02-23T10:37:06.615Z,42.97
2018-02-23T10:39:35.231Z,52.65
2018-02-23T10:42:03.000Z,32.38
2018-02-23T10:44:30.778Z,55.40
2018-02-23T10:46:58.590Z,50.85
2018-02-23T10:49:27.125Z,45.88
2018-02-23T10:51:54.907Z,40.75
2018-02-23T10:54:22.719Z,48.03
2018-02-23T10:56:50.473Z,37.50
2018-02-23T10:59:18.238Z,42.55
2018-02-23T11:01:46.080Z,45.80
2018-02-23T11:04:14.615Z,51.55
2018-02-23T11:06:43.149Z,38.10
2018-02-23T11:09:10.958Z,36.20
2018-02-23T11:11:38.714Z,31.87
2018-02-23T11:14:06.481Z,38.88
2018-02-23T11:16:34.304Z,40.70
2018-02-23T11:19:02.064Z,45.00
2018-02-23T11:21:29.825Z,51.42
2018-02-23T11:23:57.638Z,35.58
2018-02-23T11:26:25.408Z,35.65
2018-02-23T11:28:53.166Z,32.55
2018-02-23T11:31:20.988Z,34.47
2018-02-23T11:33:48.737Z,43.80
2018-02-23T11:36:16.499Z,49.65
2018-02-23T11:38:47.940Z,23.17
2018-02-23T11:41:16.062Z,33.95
2018-02-23T11:43:43.854Z,33.42
2018-02-23T11:46:12.407Z,29.92
2018-02-23T11:48:40.163Z,34.00
2018-02-23T11:51:07.984Z,37.25
2018-02-23T11:53:35.739Z,28.87
2018-02-23T11:56:03.522Z,27.73
2018-02-23T11:58:31.334Z,25.62
2018-02-23T12:00:59.338Z,25.77
2018-02-23T12:03:27.103Z,30.12
2018-02-23T12:05:54.918Z,27.25
2018-02-23T12:08:22.673Z,27.15
2018-02-23T12:10:50.439Z,36.20
2018-02-23T12:13:18.257Z,26.77
2018-02-23T12:15:46.037Z,30.37
2018-02-23T12:18:13.815Z,29.80
2018-02-23T12:20:41.631Z,34.15
2018-02-23T12:23:09.416Z,25.52
2018-02-23T12:25:37.195Z,35.05
2018-02-23T12:28:05.021Z,33.80
2018-02-23T12:30:32.789Z,38.75
2018-02-23T12:33:00.630Z,24.58
2018-02-23T12:35:29.226Z,27.30
2018-02-23T12:37:57.030Z,22.13
2018-02-23T12:40:24.788Z,29.70
2018-02-23T12:42:52.903Z,24.10
2018-02-23T12:45:21.452Z,26.87
2018-02-23T12:47:49.212Z,33.63
2018-02-23T12:50:17.027Z,32.60
2018-02-23T12:52:45.455Z,40.92
2018-02-23T12:55:13.215Z,82.03
2018-02-23T12:57:41.034Z,39.45
2018-02-23T13:00:08.798Z,31.85
2018-02-23T13:02:36.545Z,26.45
2018-02-23T13:05:05.129Z,27.02
2018-02-23T13:07:32.914Z,27.90
2018-02-23T13:10:00.730Z,33.00
2018-02-23T13:12:28.559Z,33.10
2018-02-23T13:15:02.790Z,31.65
2018-02-23T13:17:30.597Z,29.92
2018-02-23T13:19:58.363Z,23.95
2018-02-23T13:22:26.122Z,34.75
2018-02-23T13:24:53.941Z,30.00
2018-02-23T13:27:21.723Z,33.03
2018-02-23T13:29:50.254Z,28.33
2018-02-23T13:32:18.097Z,30.77
2018-02-23T13:34:45.861Z,30.05
2018-02-23T13:37:13.614Z,34.15
2018-02-23T13:39:41.439Z,32.33
2018-02-23T13:42:09.204Z,32.92
2018-02-23T13:44:36.963Z,32.95
2018-02-23T13:47:04.772Z,33.20
2018-02-23T13:49:32.538Z,31.90
2018-02-23T13:52:00.302Z,28.02
2018-02-23T13:54:28.111Z,31.58
2018-02-23T13:56:55.942Z,28.70
2018-02-23T13:59:23.809Z,20.05
2018-02-23T14:01:51.621Z,28.58
2018-02-23T14:04:20.142Z,34.10
2018-02-23T14:06:47.919Z,30.88
2018-02-23T14:09:15.733Z,35.08
2018-02-23T14:11:44.259Z,34.42
2018-02-23T14:14:12.787Z,26.02
2018-02-23T14:16:41.364Z,30.67
2018-02-23T14:19:09.900Z,23.98
2018-02-23T14:21:37.663Z,27.33
2018-02-23T14:24:05.469Z,33.85
2018-02-23T14:26:33.986Z,25.83
2018-02-23T14:29:01.768Z,20.88
2018-02-23T14:31:29.587Z,36.45
2018-02-23T14:33:57.352Z,30.20
2018-02-23T14:36:25.110Z,26.83
2018-02-23T14:38:52.954Z,30.42
2018-02-23T14:41:21.546Z,27.73
2018-02-23T14:43:49.350Z,31.85
2018-02-23T14:46:17.172Z,36.28
2018-02-23T14:48:57.588Z,30.50
2018-02-23T14:51:25.380Z,26.42
2018-02-23T14:53:53.140Z,33.80
2018-02-23T14:56:20.897Z,31.42
2018-02-23T14:58:48.845Z,32.88
2018-02-23T15:01:16.622Z,33.50
2018-02-23T15:03:44.376Z,33.85
2018-02-23T15:06:12.187Z,42.25
2018-02-23T15:08:39.937Z,42.50
2018-02-23T15:11:08.462Z,34.53
2018-02-23T15:13:37.035Z,35.30
2018-02-23T15:16:04.798Z,25.62
2018-02-23T15:18:32.551Z,35.05
2018-02-23T15:21:00.357Z,34.00
2018-02-23T15:23:28.135Z,26.77
2018-02-23T15:25:56.661Z,34.35
2018-02-23T15:28:24.543Z,31.37
2018-02-23T15:31:04.242Z,35.92
2018-02-23T15:33:32.055Z,30.40
2018-02-23T15:35:59.858Z,27.52
2018-02-23T15:38:30.420Z,32.80
2018-02-23T15:40:58.245Z,31.17
2018-02-23T15:43:26.773Z,28.77
2018-02-23T15:45:54.543Z,23.73
2018-02-23T16:01:44.262Z,33.70
2018-02-23T16:04:12.019Z,34.65
2018-02-23T16:06:39.781Z,39.88
2018-02-23T16:09:07.599Z,30.08
2018-02-23T16:11:35.357Z,36.60
2018-02-23T16:14:03.109Z,46.05
2018-02-23T16:16:30.930Z,31.58
2018-02-23T16:18:58.708Z,34.63
2018-02-23T16:21:26.476Z,33.83
2018-02-23T16:23:55.053Z,31.70
2018-02-23T16:26:22.847Z,42.35
2018-02-23T16:28:50.599Z,41.13
2018-02-23T16:31:18.406Z,29.80
2018-02-23T16:33:46.186Z,39.30
2018-02-23T16:36:13.993Z,37.58
2018-02-23T16:38:42.078Z,36.22
2018-02-23T16:41:10.606Z,39.10
2018-02-23T16:43:38.405Z,39.25
2018-02-23T16:46:06.246Z,35.67
2018-02-23T16:48:34.778Z,39.53
2018-02-23T16:51:03.307Z,29.92
2018-02-23T16:53:31.127Z,45.47
2018-02-23T16:55:58.895Z,40.97
2018-02-23T16:58:26.655Z,41.55
2018-02-23T17:00:54.487Z,49.53
2018-02-23T17:03:22.266Z,38.85
2018-02-23T17:05:50.794Z,38.92
2018-02-23T17:08:18.597Z,37.70
2018-02-23T17:10:47.168Z,40.22
2018-02-23T17:13:15.711Z,48.50
2018-02-23T17:15:43.522Z,47.88
2018-02-23T17:18:12.094Z,43.42
2018-02-23T17:20:39.887Z,38.95
2018-02-23T17:23:07.710Z,46.10
2018-02-23T17:25:35.468Z,38.70
2018-02-23T17:28:03.238Z,42.38
2018-02-23T17:30:31.097Z,46.28
2018-02-23T17:32:58.855Z,44.28
2018-02-23T17:35:26.616Z,44.47
2018-02-23T17:37:54.426Z,45.70
2018-02-23T17:40:22.198Z,41.65
2018-02-23T17:42:49.967Z,52.45
2018-02-23T17:45:17.799Z,48.42
2018-02-23T17:47:46.347Z,59.85
2018-02-23T17:50:14.108Z,42.40
2018-02-23T17:52:41.944Z,50.12
2018-02-23T17:55:09.785Z,40.47
2018-02-23T17:57:37.572Z,49.95
2018-02-23T18:00:05.389Z,46.13
2018-02-23T18:02:33.915Z,49.00
2018-02-23T18:05:01.671Z,60.35
2018-02-23T18:07:29.494Z,51.05
2018-02-23T18:09:58.036Z,47.42
2018-02-23T18:12:25.816Z,51.40
2018-02-23T18:14:53.642Z,57.58
2018-02-23T18:17:21.429Z,45.42
2018-02-23T18:19:49.232Z,51.22
2018-02-23T18:22:17.121Z,48.87
2018-02-23T18:24:44.899Z,50.75
2018-02-23T18:27:15.463Z,41.90
2018-02-23T18:29:43.307Z,50.08
2018-02-23T18:32:11.083Z,56.00
2018-02-23T18:34:38.841Z,49.85
2018-02-23T18:37:06.976Z,58.58
2018-02-23T18:39:34.737Z,58.28
2018-02-23T18:42:02.537Z,58.35
2018-02-23T18:44:30.362Z,52.58
2018-02-23T18:46:58.185Z,50.47
2018-02-23T18:49:26.719Z,53.50
2018-02-23T18:51:54.664Z,57.33
2018-02-23T18:54:22.460Z,46.20
2018-02-23T19:00:11.774Z,52.33
2018-02-23T19:02:40.353Z,46.05
2018-02-23T19:05:08.888Z,52.33
2018-02-23T19:07:36.739Z,47.28
2018-02-23T19:10:04.581Z,47.17
2018-02-23T19:12:32.369Z,44.60
2018-02-23T19:15:00.154Z,60.58
2018-02-23T19:17:28.748Z,59.17
2018-02-23T19:19:56.512Z,51.88
2018-02-23T19:22:25.067Z,60.65
2018-02-23T19:24:52.883Z,58.75
2018-02-23T19:27:21.406Z,53.35
2018-02-23T19:29:49.207Z,65.60
2018-02-23T19:32:17.027Z,62.65
2018-02-23T19:34:44.801Z,55.90
2018-02-23T19:37:12.575Z,60.95
2018-02-23T19:39:40.416Z,57.15
2018-02-23T19:42:08.955Z,57.35
2018-02-23T19:44:36.744Z,61.78
2018-02-23T19:47:04.554Z,66.90
2018-02-23T19:49:32.313Z,58.33
2018-02-23T19:52:00.076Z,54.05
2018-02-23T19:54:27.899Z,75.35
2018-02-23T19:56:55.683Z,51.40
2018-02-23T19:59:23.451Z,71.43
2018-02-23T20:01:51.262Z,68.15
2018-02-23T20:04:19.027Z,60.42
2018-02-23T20:06:46.789Z,66.75
2018-02-23T20:09:14.629Z,55.03
2018-02-23T20:11:43.223Z,63.35
2018-02-23T20:14:11.749Z,55.40
2018-02-23T20:16:39.568Z,62.88
2018-02-23T20:19:08.093Z,55.20
2018-02-23T20:21:36.614Z,58.08
2018-02-23T20:24:05.210Z,73.18
2018-02-23T20:26:32.990Z,57.22
2018-02-23T20:29:00.747Z,52.88
2018-02-23T20:31:28.606Z,70.12
2018-02-23T20:33:56.394Z,68.00
2018-02-23T20:36:24.971Z,62.28
2018-02-23T20:38:52.796Z,58.20
2018-02-23T20:41:21.357Z,73.10
2018-02-23T20:43:49.125Z,68.78
2018-02-23T20:46:16.970Z,75.22
2018-02-23T20:48:44.731Z,63.00
2018-02-23T20:51:12.490Z,65.35
2018-02-23T20:53:40.312Z,60.00
2018-02-23T20:56:08.116Z,66.70
2018-02-23T20:58:35.892Z,61.17
2018-02-23T21:01:03.703Z,53.45
2018-02-23T21:03:31.476Z,61.72
2018-02-23T21:05:59.260Z,59.20
2018-02-23T21:08:27.093Z,53.67
2018-02-23T21:10:54.862Z,64.28
2018-02-23T21:13:22.634Z,52.92
2018-02-23T21:15:50.464Z,68.10
2018-02-23T21:18:18.215Z,73.80
2018-02-23T21:20:46.742Z,86.72
2018-02-23T21:23:14.547Z,54.63
2018-02-23T21:25:43.083Z,69.72
2018-02-23T21:28:10.843Z,69.03
2018-02-23T21:30:38.669Z,72.50
2018-02-23T21:33:06.435Z,67.40
2018-02-23T21:35:34.197Z,67.03
2018-02-23T21:38:02.027Z,71.82
2018-02-23T21:40:29.792Z,62.72
2018-02-23T21:42:57.615Z,54.83
2018-02-23T21:45:25.426Z,60.03
2018-02-23T21:47:53.973Z,72.10
2018-02-23T21:50:21.749Z,54.25
2018-02-23T21:52:49.588Z,67.22
2018-02-23T21:55:17.373Z,76.85
2018-02-23T21:57:45.142Z,74.55
2018-02-23T22:00:12.969Z,65.03
2018-02-23T22:02:40.749Z,66.25
2018-02-23T22:05:08.530Z,53.58
2018-02-23T22:07:36.343Z,55.15
2018-02-23T22:10:04.131Z,49.38
2018-02-23T22:12:31.898Z,64.85
2018-02-23T22:14:59.744Z,66.45
2018-02-23T22:17:27.506Z,66.00
2018-02-23T22:19:55.311Z,50.28
2018-02-23T22:22:23.919Z,56.00
2018-02-23T22:24:52.463Z,76.95
2018-02-23T22:27:20.233Z,66.85
2018-02-23T22:29:48.063Z,63.33
2018-02-23T22:32:15.851Z,70.20
2018-02-23T22:34:43.606Z,63.80
2018-02-23T22:37:11.421Z,60.42
2018-02-23T22:39:39.618Z,76.93
2018-02-23T22:42:07.396Z,66.37
2018-02-23T22:44:35.222Z,74.90
2018-02-23T22:47:03.002Z,68.87
2018-02-23T22:49:30.774Z,72.30
2018-02-23T22:51:58.598Z,79.75
2018-02-23T22:54:26.366Z,72.62
2018-02-23T22:56:54.138Z,83.00
2018-02-23T22:59:22.022Z,66.43
2018-02-23T23:01:49.779Z,61.33
2018-02-23T23:04:17.558Z,50.40
2018-02-23T23:06:45.369Z,60.75
2018-02-23T23:09:13.143Z,69.50
2018-02-23T23:11:40.895Z,66.62
2018-02-23T23:14:08.720Z,65.70
2018-02-23T23:16:36.483Z,78.00
2018-02-23T23:19:04.273Z,83.40
2018-02-23T23:21:32.102Z,65.18
2018-02-23T23:23:59.913Z,60.88
2018-02-23T23:26:27.684Z,77.18
2018-02-23T23:28:55.486Z,62.42
2018-02-23T23:31:23.256Z,52.58
2018-02-23T23:33:51.042Z,62.28
2018-02-23T23:36:19.639Z,67.90
2018-02-23T23:38:47.417Z,65.78
2018-02-23T23:41:15.234Z,56.25
2018-02-23T23:43:43.038Z,68.20
2018-02-23T23:46:10.788Z,59.83
2018-02-23T23:48:38.546Z,64.55
2018-02-23T23:51:06.361Z,68.68
2018-02-23T23:53:34.129Z,72.62
2018-02-23T23:56:01.891Z,67.68
2018-02-23T23:58:29.709Z,67.75
